Time;durP1;ratioP1;P1;durP2;ratioP2;P2;SDS_P1;SDS_P2;PMS_P1;PMS_P2;Temp;Humidity;BMP_temperature;BMP_pressure;BME280_temperature;BME280_humidity;BME280_pressure;Samples;Min_cycle;Max_cycle;Signal;HPM_P1;HPM_P2
2022/05/10 00:00:12;;;;;;;21.73;6.88;;;16.20;98.70;;;;;;6369835;22;20002;-72
2022/05/10 00:02:39;;;;;;;16.58;6.90;;;16.20;98.70;;;;;;6342023;22;20058;-72
2022/05/10 00:05:07;;;;;;;22.13;6.78;;;16.30;98.70;;;;;;6315646;22;20029;-72
2022/05/10 00:07:36;;;;;;;17.48;6.43;;;16.30;98.70;;;;;;6341914;22;20480;-72
2022/05/10 00:10:07;;;;;;;17.02;5.68;;;16.30;98.70;;;;;;6316616;22;20002;-72
2022/05/10 00:12:35;;;;;;;21.83;5.18;;;16.30;98.60;;;;;;6342034;22;20079;-72
2022/05/10 00:15:02;;;;;;;14.63;5.40;;;16.40;98.60;;;;;;6341723;22;20030;-72
2022/05/10 00:17:35;;;;;;;15.57;4.82;;;16.50;98.60;;;;;;6341924;22;20006;-72
2022/05/10 00:20:03;;;;;;;17.92;4.53;;;16.60;98.60;;;;;;6316822;22;20277;-72
2022/05/10 00:22:31;;;;;;;16.67;4.53;;;16.70;98.50;;;;;;6342157;22;20002;-72
2022/05/10 00:24:58;;;;;;;12.50;2.75;;;16.80;98.50;;;;;;6369219;22;20005;-72
2022/05/10 00:27:25;;;;;;;10.05;2.03;;;16.80;98.30;;;;;;6341431;22;20016;-72
2022/05/10 00:29:52;;;;;;;13.27;2.90;;;16.70;98.00;;;;;;6369392;22;19998;-72
2022/05/10 00:32:19;;;;;;;12.23;2.30;;;16.80;97.80;;;;;;6340648;22;20025;-72
2022/05/10 00:34:47;;;;;;;11.63;2.50;;;16.80;97.30;;;;;;6289257;22;20044;-72
2022/05/10 00:37:14;;;;;;;12.23;2.35;;;16.80;97.20;;;;;;6341290;22;20003;-72
2022/05/10 00:39:41;;;;;;;14.07;3.00;;;16.90;97.30;;;;;;6315708;22;19998;-72
2022/05/10 00:42:33;;;;;;;9.50;2.55;;;17.00;97.30;;;;;;6369389;22;20010;-72
2022/05/10 00:45:17;;;;;;;10.15;2.47;;;17.00;96.80;;;;;;6341649;22;20018;-73
2022/05/10 00:47:51;;;;;;;16.27;2.63;;;17.10;96.80;;;;;;6343201;22;20059;-72
2022/05/10 00:50:47;;;;;;;7.45;1.45;;;17.00;95.80;;;;;;6341688;22;20005;-72
2022/05/10 00:53:27;;;;;;;13.80;2.17;;;17.10;94.40;;;;;;6292102;22;20420;-72
2022/05/10 00:56:02;;;;;;;14.07;2.20;;;17.10;94.20;;;;;;6316236;22;19998;-72
2022/05/10 00:58:38;;;;;;;13.00;2.38;;;17.10;92.00;;;;;;6341763;22;19994;-72
2022/05/10 01:01:05;;;;;;;8.48;1.88;;;17.10;89.60;;;;;;6368721;22;20067;-72
2022/05/10 01:03:38;;;;;;;17.33;2.45;;;17.20;91.40;;;;;;6368935;22;20065;-72
2022/05/10 01:06:10;;;;;;;12.30;1.77;;;17.30;92.10;;;;;;6342232;22;20090;-72
2022/05/10 01:09:01;;;;;;;9.00;1.98;;;17.20;91.00;;;;;;6369045;22;20014;-72
2022/05/10 01:11:34;;;;;;;;;;;17.30;90.60;;;;;;6319008;22;20002;-72
2022/05/10 01:14:06;;;;;;;10.93;2.53;;;17.40;88.90;;;;;;6341146;22;19898;-73
2022/05/10 01:16:33;;;;;;;15.65;2.00;;;17.50;89.30;;;;;;6341047;22;20334;-72
2022/05/10 01:19:01;;;;;;;11.32;2.00;;;17.60;89.30;;;;;;6316006;22;20336;-72
2022/05/10 01:22:03;;;;;;;10.98;2.10;;;17.60;85.80;;;;;;6368729;22;20003;-72
2022/05/10 01:24:51;;;;;;;9.05;1.70;;;17.70;85.90;;;;;;6237470;22;20017;-73
2022/05/10 01:27:36;;;;;;;10.55;1.88;;;17.70;85.10;;;;;;6369340;22;20021;-72
2022/05/10 01:30:23;;;;;;;8.10;2.10;;;17.80;86.50;;;;;;6368678;22;20010;-72
2022/05/10 01:36:08;;;;;;;21.58;2.70;;;17.80;85.50;;;;;;6368602;22;20028;-72
2022/05/10 01:38:55;;;;;;;6.72;1.65;;;18.00;85.30;;;;;;6316363;22;20325;-72
2022/05/10 01:41:31;;;;;;;16.23;2.17;;;17.90;84.60;;;;;;6341182;22;20002;-72
2022/05/10 01:44:14;;;;;;;8.73;1.80;;;18.00;84.30;;;;;;6341393;22;20009;-72
2022/05/10 01:46:41;;;;;;;16.33;2.15;;;17.90;84.10;;;;;;6341083;22;20022;-72
2022/05/10 01:49:25;;;;;;;17.67;2.72;;;17.90;84.50;;;;;;6341550;22;20021;-72
2022/05/10 01:51:58;;;;;;;13.13;2.78;;;18.00;84.40;;;;;;6344552;22;20032;-72
2022/05/10 01:54:34;;;;;;;11.57;2.40;;;18.00;84.70;;;;;;6317572;22;20073;-73
2022/05/10 01:57:03;;;;;;;12.90;2.35;;;18.10;83.70;;;;;;6370909;22;19998;-73
2022/05/10 01:59:30;;;;;;;11.43;2.53;;;18.10;82.60;;;;;;6291778;22;20463;-72
2022/05/10 02:01:58;;;;;;;17.42;2.53;;;18.10;84.00;;;;;;6317135;22;20375;-72
2022/05/10 02:04:28;;;;;;;9.27;2.05;;;18.10;84.00;;;;;;6317794;22;20313;-72
2022/05/10 02:07:03;;;;;;;13.35;3.30;;;18.20;84.50;;;;;;6343438;22;20010;-72
2022/05/10 02:09:36;;;;;;;15.77;2.45;;;18.20;83.10;;;;;;6292793;22;20002;-72
2022/05/10 02:12:16;;;;;;;11.48;2.50;;;18.30;82.10;;;;;;6370308;22;19998;-72
2022/05/10 02:14:56;;;;;;;16.45;2.55;;;18.30;82.90;;;;;;6317377;22;20025;-73
2022/05/10 02:17:46;;;;;;;17.75;2.72;;;18.40;83.00;;;;;;6318812;22;20073;-73
2022/05/10 02:20:35;;;;;;;14.30;2.20;;;18.40;83.40;;;;;;6336139;22;20390;-72
2022/05/10 02:23:10;;;;;;;9.13;2.28;;;18.50;82.20;;;;;;6316639;22;20345;-72
2022/05/10 02:25:41;;;;;;;7.82;1.58;;;18.50;81.30;;;;;;6343572;22;20753;-73
2022/05/10 02:28:49;;;;;;;21.27;2.42;;;18.50;81.60;;;;;;6317586;22;19998;-72
2022/05/10 02:34:42;;;;;;;12.50;1.92;;;18.50;81.50;;;;;;6326444;22;20098;-73
2022/05/10 02:37:09;;;;;;;14.40;2.30;;;18.50;80.50;;;;;;6312799;22;20048;-73
2022/05/10 02:39:37;;;;;;;10.43;2.03;;;18.50;80.60;;;;;;6338249;22;20010;-72
2022/05/10 02:42:05;;;;;;;9.73;1.98;;;18.50;80.50;;;;;;6336839;22;20329;-72
2022/05/10 02:44:32;;;;;;;10.38;2.65;;;18.50;79.50;;;;;;6311217;22;20117;-73
2022/05/10 02:46:59;;;;;;;14.55;2.55;;;18.50;80.60;;;;;;6337013;22;20376;-73
2022/05/10 02:49:26;;;;;;;16.45;2.92;;;18.50;80.10;;;;;;6337647;22;20048;-72
2022/05/10 02:51:55;;;;;;;11.13;2.20;;;18.50;80.00;;;;;;6338868;22;20003;-73
2022/05/10 02:54:22;;;;;;;8.88;1.95;;;18.50;80.80;;;;;;6338696;22;20367;-72
2022/05/10 02:56:49;;;;;;;8.90;2.00;;;18.60;79.40;;;;;;6337794;22;20002;-72
2022/05/10 02:59:24;;;;;;;11.32;1.98;;;18.60;79.40;;;;;;6311520;22;20376;-73
2022/05/10 03:02:03;;;;;;;10.38;2.60;;;18.60;78.80;;;;;;6337135;22;20005;-72
2022/05/10 03:04:37;;;;;;;14.27;2.30;;;18.60;78.10;;;;;;6312522;22;20447;-73
2022/05/10 03:07:05;;;;;;;9.90;2.15;;;18.60;78.40;;;;;;6336955;22;20017;-73
2022/05/10 03:09:33;;;;;;;12.27;2.28;;;18.60;79.60;;;;;;6311583;22;20052;-72
2022/05/10 03:12:02;;;;;;;16.45;2.63;;;18.60;78.10;;;;;;6337061;22;19999;-72
2022/05/10 03:14:30;;;;;;;15.23;3.17;;;18.50;79.60;;;;;;6285484;22;20003;-73
2022/05/10 03:16:57;;;;;;;14.23;2.55;;;18.50;79.90;;;;;;6337078;22;20380;-72
2022/05/10 03:19:24;;;;;;;22.27;3.63;;;18.50;79.70;;;;;;6310814;22;20306;-72
2022/05/10 03:21:51;;;;;;;11.63;2.28;;;18.50;79.60;;;;;;6310620;22;20014;-72
2022/05/10 03:24:18;;;;;;;15.20;2.55;;;18.60;79.10;;;;;;6338365;22;20003;-72
2022/05/10 03:26:51;;;;;;;11.48;2.08;;;18.70;78.70;;;;;;6337925;22;20010;-73
2022/05/10 03:29:18;;;;;;;13.32;2.10;;;18.80;78.10;;;;;;6310185;22;20003;-72
2022/05/10 03:31:45;;;;;;;15.88;2.45;;;18.80;77.30;;;;;;6310720;22;20051;-72
2022/05/10 03:36:58;;;;;;;11.73;1.83;;;18.80;78.90;;;;;;6315257;22;20010;-73
2022/05/10 03:39:25;;;;;;;8.05;1.40;;;18.80;77.60;;;;;;6337509;22;19999;-73
2022/05/10 03:41:53;;;;;;;8.27;2.15;;;18.80;76.50;;;;;;6336787;22;19999;-73
2022/05/10 03:44:20;;;;;;;24.10;2.83;;;18.80;76.60;;;;;;6310844;22;20056;-73
2022/05/10 03:46:47;;;;;;;10.32;2.05;;;18.80;76.40;;;;;;6285047;22;20050;-73
2022/05/10 03:49:14;;;;;;;7.00;1.95;;;18.90;75.20;;;;;;6336624;22;20473;-72
2022/05/10 03:51:41;;;;;;;13.30;2.22;;;19.00;76.00;;;;;;6336279;22;20033;-73
2022/05/10 03:54:09;;;;;;;22.90;2.78;;;19.00;76.70;;;;;;6336603;22;20402;-73
2022/05/10 03:56:36;;;;;;;18.55;2.67;;;19.00;77.80;;;;;;6310585;22;20334;-73
2022/05/10 03:59:03;;;;;;;16.52;3.20;;;19.10;77.10;;;;;;6336274;22;20005;-73
2022/05/10 04:01:30;;;;;;;18.65;2.40;;;19.20;77.70;;;;;;6338220;22;20005;-73
2022/05/10 04:03:57;;;;;;;14.38;2.92;;;19.10;76.60;;;;;;6336612;22;20068;-73
2022/05/10 04:06:25;;;;;;;10.82;2.00;;;19.10;76.60;;;;;;6336475;22;20338;-73
2022/05/10 04:08:52;;;;;;;12.85;2.00;;;19.20;75.80;;;;;;6336315;22;20007;-73
2022/05/10 04:11:19;;;;;;;9.60;2.00;;;19.10;75.60;;;;;;6336287;22;20003;-73
2022/05/10 04:13:46;;;;;;;18.55;3.35;;;19.10;75.50;;;;;;6337859;22;19991;-73
2022/05/10 04:16:13;;;;;;;11.60;2.50;;;19.00;77.00;;;;;;6335968;22;20010;-73
2022/05/10 04:18:40;;;;;;;10.02;2.30;;;19.00;75.80;;;;;;6338127;22;20066;-73
2022/05/10 04:21:08;;;;;;;9.15;2.33;;;19.00;76.00;;;;;;6336729;22;20022;-73
2022/05/10 04:23:35;;;;;;;10.57;1.90;;;19.00;75.90;;;;;;6338043;22;20005;-73
2022/05/10 04:26:04;;;;;;;10.80;2.35;;;19.00;76.00;;;;;;6310300;22;20022;-73
2022/05/10 04:28:33;;;;;;;7.85;2.25;;;19.10;76.00;;;;;;6336555;22;20363;-73
2022/05/10 04:31:00;;;;;;;10.60;2.25;;;19.00;75.90;;;;;;6310759;22;20037;-73
2022/05/10 04:33:27;;;;;;;14.45;1.45;;;19.00;76.40;;;;;;6310563;22;20003;-73
2022/05/10 04:35:54;;;;;;;19.20;2.03;;;19.10;75.40;;;;;;6338301;22;20002;-74
2022/05/10 04:38:21;;;;;;;11.93;1.80;;;19.10;75.70;;;;;;6335827;22;19999;-73
2022/05/10 04:43:37;;;;;;;15.48;2.35;;;19.10;75.00;;;;;;6314576;22;20274;-73
2022/05/10 04:46:04;;;;;;;13.15;3.00;;;19.20;75.10;;;;;;6335957;22;20434;-73
2022/05/10 04:48:33;;;;;;;9.23;2.40;;;19.10;76.20;;;;;;6310694;22;20014;-73
2022/05/10 04:51:01;;;;;;;17.67;4.28;;;19.10;74.60;;;;;;6336473;22;20454;-73
2022/05/10 04:53:28;;;;;;;21.60;4.05;;;19.10;75.50;;;;;;6337610;22;19995;-73
2022/05/10 04:55:56;;;;;;;10.02;2.08;;;19.00;75.20;;;;;;6336363;22;20077;-73
2022/05/10 04:58:23;;;;;;;14.95;3.00;;;19.10;74.50;;;;;;6337250;22;20010;-73
2022/05/10 05:00:50;;;;;;;19.63;2.60;;;19.10;75.70;;;;;;6337725;22;19999;-73
2022/05/10 05:03:17;;;;;;;10.23;1.80;;;19.20;75.00;;;;;;6335392;22;20006;-74
2022/05/10 05:05:45;;;;;;;7.55;1.50;;;19.20;73.10;;;;;;6337077;22;20009;-73
2022/05/10 05:08:12;;;;;;;8.18;2.22;;;19.30;74.70;;;;;;6337649;22;20056;-73
2022/05/10 05:10:39;;;;;;;8.68;2.20;;;19.30;74.30;;;;;;6337961;22;20022;-73
2022/05/10 05:13:06;;;;;;;5.40;1.38;;;19.20;73.80;;;;;;6336900;22;20080;-73
2022/05/10 05:15:33;;;;;;;8.18;1.77;;;19.30;73.20;;;;;;6337045;22;20002;-73
2022/05/10 05:18:03;;;;;;;29.90;3.42;;;19.20;73.90;;;;;;6336134;22;20430;-73
2022/05/10 05:20:31;;;;;;;15.93;2.10;;;19.20;73.70;;;;;;6336104;22;19995;-73
2022/05/10 05:22:58;;;;;;;8.55;2.17;;;19.20;74.00;;;;;;6309808;22;20052;-74
2022/05/10 05:25:26;;;;;;;10.35;1.77;;;19.20;73.90;;;;;;6335673;22;20085;-74
2022/05/10 05:27:53;;;;;;;5.85;1.50;;;19.10;73.10;;;;;;6337037;22;20005;-73
2022/05/10 05:30:20;;;;;;;8.82;1.60;;;19.10;73.90;;;;;;6312756;22;20009;-73
2022/05/10 05:32:47;;;;;;;9.38;1.90;;;19.10;74.00;;;;;;6341159;22;20018;-74
2022/05/10 05:35:15;;;;;;;19.15;2.53;;;19.10;74.50;;;;;;6340644;22;20033;-74
2022/05/10 05:37:42;;;;;;;9.52;2.10;;;19.00;75.40;;;;;;6341708;22;20373;-74
2022/05/10 05:40:15;;;;;;;10.55;2.03;;;19.10;74.50;;;;;;6368876;22;20002;-73
2022/05/10 05:42:42;;;;;;;9.93;2.38;;;19.10;75.30;;;;;;6315238;22;20078;-73
2022/05/10 05:45:10;;;;;;;7.93;2.03;;;19.10;75.20;;;;;;6339640;22;20383;-73
2022/05/10 05:47:38;;;;;;;6.45;1.80;;;19.10;75.00;;;;;;6340938;22;20014;-74
2022/05/10 05:50:06;;;;;;;9.98;1.98;;;19.20;73.60;;;;;;6340912;22;20026;-73
2022/05/10 05:52:33;;;;;;;11.30;2.35;;;19.10;73.20;;;;;;6368344;22;20006;-74
2022/05/10 05:55:00;;;;;;;4.30;1.05;;;19.10;73.50;;;;;;6289149;22;19998;-74
2022/05/10 05:57:27;;;;;;;14.60;2.63;;;19.00;73.70;;;;;;6368288;22;20085;-74
2022/05/10 05:59:55;;;;;;;11.95;2.13;;;19.10;73.90;;;;;;6367970;22;20324;-73
2022/05/10 06:02:23;;;;;;;9.88;1.58;;;19.10;73.80;;;;;;6314278;22;20006;-73
2022/05/10 06:04:50;;;;;;;22.75;2.80;;;19.00;73.10;;;;;;6289035;22;20085;-74
2022/05/10 06:07:17;;;;;;;18.90;2.55;;;19.00;73.40;;;;;;6314519;22;20022;-74
2022/05/10 06:09:45;;;;;;;13.35;2.00;;;19.00;73.30;;;;;;6368137;22;19994;-73
2022/05/10 06:12:16;;;;;;;10.15;3.17;;;19.00;72.90;;;;;;6314944;22;20416;-73
2022/05/10 06:14:43;;;;;;;10.60;2.47;;;19.00;73.30;;;;;;6335417;22;19999;-72
2022/05/10 06:17:11;;;;;;;10.57;2.17;;;19.00;72.80;;;;;;6364197;22;20007;-72
2022/05/10 06:19:39;;;;;;;6.43;1.52;;;19.00;72.50;;;;;;6364784;22;20066;-72
2022/05/10 06:22:07;;;;;;;11.55;2.03;;;19.00;72.30;;;;;;6364615;22;20007;-71
2022/05/10 06:24:34;;;;;;;13.00;2.70;;;18.90;72.70;;;;;;6364687;22;19999;-72
2022/05/10 06:27:02;;;;;;;24.20;3.53;;;18.90;73.30;;;;;;6336700;22;20042;-74
2022/05/10 06:29:30;;;;;;;11.07;2.05;;;18.90;74.30;;;;;;6337217;22;19998;-73
2022/05/10 06:31:57;;;;;;;14.45;2.53;;;18.90;72.00;;;;;;6336861;22;20056;-72
2022/05/10 06:34:24;;;;;;;10.93;1.85;;;18.90;72.20;;;;;;6336544;22;20006;-73
2022/05/10 06:36:51;;;;;;;6.60;1.67;;;19.00;71.80;;;;;;6366262;22;20006;-73
2022/05/10 06:39:18;;;;;;;8.43;2.03;;;19.00;71.10;;;;;;6366106;22;20097;-73
2022/05/10 06:41:45;;;;;;;10.55;2.30;;;19.00;71.60;;;;;;6335516;22;20011;-74
2022/05/10 06:44:13;;;;;;;13.98;2.42;;;19.00;71.70;;;;;;6366129;22;20002;-72
2022/05/10 06:46:40;;;;;;;7.45;1.88;;;19.00;72.60;;;;;;6338227;22;20033;-71
2022/05/10 06:49:09;;;;;;;8.98;1.98;;;18.90;70.20;;;;;;6366680;22;20002;-72
2022/05/10 06:51:37;;;;;;;8.60;1.65;;;18.90;69.20;;;;;;6338881;22;20504;-72
2022/05/10 06:54:04;;;;;;;14.10;2.42;;;19.00;69.80;;;;;;6286450;22;20452;-71
2022/05/10 06:56:31;;;;;;;9.50;2.00;;;18.90;69.90;;;;;;6338410;22;20383;-71
2022/05/10 06:58:58;;;;;;;5.90;1.80;;;18.80;70.30;;;;;;6366248;22;20391;-71
2022/05/10 07:01:25;;;;;;;14.38;2.10;;;18.80;70.00;;;;;;6338055;22;20312;-72
2022/05/10 07:03:52;;;;;;;10.80;1.95;;;18.80;70.70;;;;;;6366071;22;20059;-71
2022/05/10 07:06:23;;;;;;;13.32;2.28;;;18.80;70.60;;;;;;6337626;22;20211;-71
2022/05/10 07:08:50;;;;;;;10.00;1.80;;;18.80;71.00;;;;;;6287030;22;20012;-70
2022/05/10 07:11:17;;;;;;;6.97;1.40;;;18.80;71.30;;;;;;6365989;22;19998;-73
2022/05/10 07:13:44;;;;;;;8.98;1.88;;;18.80;70.60;;;;;;6366089;22;20006;-74
2022/05/10 07:16:11;;;;;;;9.88;1.67;;;18.80;70.00;;;;;;6365662;22;20006;-73
2022/05/10 07:18:39;;;;;;;11.73;1.95;;;18.80;70.90;;;;;;6337886;22;20340;-73
2022/05/10 07:21:06;;;;;;;9.65;1.77;;;18.80;70.50;;;;;;6338076;22;20093;-72
2022/05/10 07:23:33;;;;;;;8.80;1.98;;;18.70;71.50;;;;;;6337763;22;20497;-73
2022/05/10 07:26:00;;;;;;;10.27;1.75;;;18.80;70.30;;;;;;6337331;22;20040;-73
2022/05/10 07:28:32;;;;;;;12.43;1.33;;;18.70;70.70;;;;;;6365645;22;20421;-72
2022/05/10 07:30:59;;;;;;;9.30;1.90;;;18.80;70.90;;;;;;6366030;22;20018;-72
2022/05/10 07:33:27;;;;;;;9.98;1.83;;;18.70;71.50;;;;;;6366105;22;20320;-71
2022/05/10 07:38:40;;;;;;;9.68;2.10;;;18.60;71.80;;;;;;6365213;22;20078;-74
2022/05/10 07:41:07;;;;;;;8.98;1.40;;;18.70;71.40;;;;;;6363499;22;20508;-72
2022/05/10 07:43:37;;;;;;;7.25;1.63;;;18.60;70.60;;;;;;6338415;22;20116;-73
2022/05/10 07:46:04;;;;;;;7.95;1.58;;;18.70;70.20;;;;;;6311653;22;20404;-74
2022/05/10 07:48:31;;;;;;;7.72;1.90;;;18.70;70.50;;;;;;6311440;22;20117;-74
2022/05/10 07:51:00;;;;;;;8.95;1.42;;;18.70;70.70;;;;;;6337555;22;20687;-74
2022/05/10 07:53:28;;;;;;;3.50;1.13;;;18.70;70.60;;;;;;6312544;22;20006;-72
2022/05/10 07:55:55;;;;;;;4.72;1.42;;;18.70;69.90;;;;;;6309494;22;20106;-73
2022/05/10 07:58:22;;;;;;;7.60;1.70;;;18.70;69.60;;;;;;6365073;22;20002;-73
2022/05/10 08:00:49;;;;;;;11.30;1.58;;;18.60;70.30;;;;;;6365143;22;20433;-73
2022/05/10 08:03:21;;;;;;;5.45;1.45;;;18.60;70.00;;;;;;6364622;22;20055;-73
2022/05/10 08:05:48;;;;;;;5.57;1.10;;;18.60;69.60;;;;;;6335938;22;20430;-73
2022/05/10 08:08:18;;;;;;;3.60;1.02;;;18.60;69.50;;;;;;6337314;22;20006;-73
2022/05/10 08:10:46;;;;;;;6.22;1.40;;;18.60;69.70;;;;;;6337951;22;20007;-72
2022/05/10 08:13:16;;;;;;;8.07;1.60;;;18.60;69.50;;;;;;6285703;22;20002;-70
2022/05/10 08:15:44;;;;;;;4.25;1.20;;;18.60;70.10;;;;;;6337871;22;20081;-72
2022/05/10 08:18:12;;;;;;;6.40;1.40;;;18.70;68.70;;;;;;6311949;22;20010;-71
2022/05/10 08:20:39;;;;;;;4.22;1.40;;;18.70;67.20;;;;;;6364094;22;20014;-72
2022/05/10 08:23:07;;;;;;;5.20;1.35;;;18.70;68.30;;;;;;6364618;22;20010;-71
2022/05/10 08:25:34;;;;;;;4.22;1.40;;;18.70;68.10;;;;;;6336608;22;20014;-69
2022/05/10 08:28:02;;;;;;;7.85;1.55;;;18.70;68.90;;;;;;6364958;22;20008;-69
2022/05/10 08:30:30;;;;;;;6.03;1.23;;;18.60;68.30;;;;;;6364352;22;20010;-70
2022/05/10 08:32:57;;;;;;;7.53;1.20;;;18.60;68.30;;;;;;6335572;22;20010;-72
2022/05/10 08:35:24;;;;;;;3.45;1.23;;;18.60;68.00;;;;;;6363897;22;20006;-72
2022/05/10 08:37:52;;;;;;;5.80;1.80;;;18.60;68.00;;;;;;6310015;22;19999;-69
2022/05/10 08:40:32;;;;;;;6.13;1.65;;;18.60;68.70;;;;;;6333478;22;20349;-71
2022/05/10 08:43:02;;;;;;;5.93;1.70;;;18.60;68.40;;;;;;6311736;22;20013;-72
2022/05/10 08:45:29;;;;;;;8.13;2.13;;;18.60;68.20;;;;;;6338057;22;20021;-73
2022/05/10 08:47:56;;;;;;;5.28;1.42;;;18.60;68.80;;;;;;6311278;22;20021;-73
2022/05/10 08:50:24;;;;;;;6.63;1.75;;;18.60;68.40;;;;;;6336753;22;20417;-73
2022/05/10 08:52:51;;;;;;;7.28;1.90;;;18.60;68.90;;;;;;6364811;22;20447;-74
2022/05/10 08:55:26;;;;;;;5.18;1.85;;;18.60;69.20;;;;;;6364928;22;20021;-73
2022/05/10 08:58:32;;;;;;;7.43;1.50;;;18.50;67.60;;;;;;6286033;22;20006;-73
2022/05/10 09:01:00;;;;;;;8.82;1.55;;;18.50;67.60;;;;;;6364616;22;20004;-68
2022/05/10 09:03:38;;;;;;;22.38;2.58;;;18.50;67.40;;;;;;6310856;22;20006;-72
2022/05/10 09:06:26;;;;;;;8.25;1.27;;;18.50;67.40;;;;;;6310742;22;20029;-70
2022/05/10 09:09:16;;;;;;;4.72;1.17;;;18.50;67.30;;;;;;6286209;22;20417;-69
2022/05/10 09:12:05;;;;;;;5.95;1.45;;;18.50;67.40;;;;;;6337354;22;20067;-71
2022/05/10 09:14:38;;;;;;;3.67;1.30;;;18.40;67.00;;;;;;6339994;22;20055;-69
2022/05/10 09:17:05;;;;;;;6.07;1.80;;;18.40;67.70;;;;;;6312308;22;20002;-71
2022/05/10 09:19:40;;;;;;;5.65;1.50;;;18.40;66.80;;;;;;6336858;22;20014;-71
2022/05/10 09:22:26;;;;;;;8.05;1.92;;;18.50;64.60;;;;;;6311520;22;20029;-72
2022/05/10 09:24:56;;;;;;;11.05;2.03;;;18.50;65.60;;;;;;6339955;22;20047;-74
2022/05/10 09:27:32;;;;;;;5.63;1.48;;;18.50;66.70;;;;;;6310465;22;20067;-73
2022/05/10 09:30:00;;;;;;;7.35;1.95;;;18.50;66.20;;;;;;6312567;22;20354;-74
2022/05/10 09:35:28;;;;;;;6.40;1.55;;;18.50;66.70;;;;;;6319283;22;20056;-73
2022/05/10 09:38:03;;;;;;;6.50;1.73;;;18.50;66.30;;;;;;6363775;22;20055;-73
2022/05/10 09:40:44;;;;;;;6.15;1.50;;;18.40;66.50;;;;;;6333260;22;20200;-71
2022/05/10 09:43:18;;;;;;;17.90;2.33;;;18.40;66.70;;;;;;6311964;22;20292;-72
2022/05/10 09:45:46;;;;;;;8.48;1.67;;;18.40;66.70;;;;;;6336353;22;20299;-71
2022/05/10 09:48:16;;;;;;;6.72;1.63;;;18.40;67.10;;;;;;6310957;22;20102;-71
2022/05/10 09:50:49;;;;;;;4.25;1.63;;;18.40;67.50;;;;;;6337041;22;19998;-71
2022/05/10 09:53:29;;;;;;;7.68;1.80;;;18.40;66.90;;;;;;6286107;22;20006;-70
2022/05/10 09:56:02;;;;;;;8.07;1.57;;;18.40;66.40;;;;;;6336648;22;20002;-69
2022/05/10 09:58:43;;;;;;;10.95;2.17;;;18.40;66.40;;;;;;6335903;22;20573;-69
2022/05/10 10:01:13;;;;;;;22.92;2.63;;;18.40;67.10;;;;;;6311256;22;20073;-70
2022/05/10 10:03:42;;;;;;;5.60;1.60;;;18.30;67.10;;;;;;6336919;22;20386;-70
2022/05/10 10:06:27;;;;;;;7.05;1.70;;;18.40;66.30;;;;;;6364208;22;20010;-70
2022/05/10 10:08:55;;;;;;;4.55;1.60;;;18.40;66.20;;;;;;6285149;22;20013;-71
2022/05/10 10:11:22;;;;;;;8.90;1.70;;;18.40;66.60;;;;;;6366615;22;20456;-70
2022/05/10 10:13:57;;;;;;;10.68;1.42;;;18.40;66.80;;;;;;6365857;22;20022;-71
2022/05/10 10:16:28;;;;;;;8.52;1.50;;;18.40;66.20;;;;;;6366170;22;20080;-72
2022/05/10 10:19:21;;;;;;;6.30;1.65;;;18.40;65.80;;;;;;6339664;22;20047;-71
2022/05/10 10:21:51;;;;;;;9.25;2.25;;;18.40;65.30;;;;;;6360006;22;20317;-71
2022/05/10 10:24:46;;;;;;;6.85;1.58;;;18.40;65.20;;;;;;6366415;22;20002;-71
2022/05/10 10:27:23;;;;;;;4.63;1.60;;;18.50;65.30;;;;;;6315533;22;20863;-68
2022/05/10 10:30:00;;;;;;;9.48;1.88;;;18.50;64.60;;;;;;6312951;22;20003;-70
2022/05/10 10:32:35;;;;;;;5.47;1.17;;;18.50;65.70;;;;;;6313467;22;20087;-70
2022/05/10 10:35:10;;;;;;;4.88;1.20;;;18.50;65.50;;;;;;6313676;22;20002;-70
2022/05/10 10:38:15;;;;;;;51.00;4.40;;;18.50;66.20;;;;;;6339028;22;20034;-70
2022/05/10 10:40:45;;;;;;;19.25;2.03;;;18.50;65.70;;;;;;6339533;22;20093;-71
2022/05/10 10:43:18;;;;;;;6.80;1.35;;;18.50;66.80;;;;;;6286396;22;20020;-72
2022/05/10 10:46:09;;;;;;;12.20;2.17;;;18.50;67.00;;;;;;6366815;22;20089;-72
2022/05/10 10:48:41;;;;;;;4.53;1.23;;;18.40;67.10;;;;;;6345710;22;20014;-71
2022/05/10 10:51:09;;;;;;;11.15;1.60;;;18.40;67.00;;;;;;6366221;22;20006;-72
2022/05/10 10:53:38;;;;;;;5.22;1.27;;;18.50;66.30;;;;;;6338918;22;20622;-70
2022/05/10 10:56:15;;;;;;;6.07;1.48;;;18.40;65.90;;;;;;6312608;22;20013;-71
2022/05/10 10:59:00;;;;;;;9.20;1.92;;;18.40;66.40;;;;;;6337874;22;20006;-72
2022/05/10 11:01:30;;;;;;;8.73;1.73;;;18.40;67.10;;;;;;6337485;22;20002;-72
2022/05/10 11:04:30;;;;;;;14.35;1.60;;;18.40;66.70;;;;;;6365035;22;20018;-70
2022/05/10 11:06:57;;;;;;;4.78;1.23;;;18.30;65.80;;;;;;6313206;22;20356;-72
2022/05/10 11:09:30;;;;;;;7.18;1.70;;;18.40;66.10;;;;;;6338424;22;20639;-71
2022/05/10 11:12:21;;;;;;;3.35;1.08;;;18.40;65.30;;;;;;6366023;22;20006;-71
2022/05/10 11:15:19;;;;;;;12.63;1.70;;;18.40;65.00;;;;;;6365459;22;20411;-71
2022/05/10 11:17:54;;;;;;;8.73;1.30;;;18.40;65.40;;;;;;6366033;22;20209;-71
2022/05/10 11:20:38;;;;;;;6.70;1.27;;;18.40;64.10;;;;;;6365503;22;20005;-71
2022/05/10 11:23:07;;;;;;;5.25;1.42;;;18.40;64.60;;;;;;6341221;22;20081;-71
2022/05/10 11:25:48;;;;;;;5.65;1.17;;;18.50;63.90;;;;;;6311337;22;20066;-71
2022/05/10 11:28:42;;;;;;;4.43;1.20;;;18.50;64.70;;;;;;6311161;22;20022;-71
2022/05/10 11:31:28;;;;;;;5.35;1.20;;;18.50;65.30;;;;;;6331448;22;20018;-70
2022/05/10 11:34:01;;;;;;;5.57;1.23;;;18.50;65.00;;;;;;6333796;22;20011;-71
2022/05/10 11:36:47;;;;;;;11.63;1.70;;;18.50;65.40;;;;;;6334160;22;19999;-71
2022/05/10 11:39:41;;;;;;;7.07;1.33;;;18.50;66.30;;;;;;6332053;22;20002;-71
2022/05/10 11:42:26;;;;;;;7.63;1.52;;;18.40;66.60;;;;;;6331400;22;20003;-70
2022/05/10 11:45:13;;;;;;;6.15;1.20;;;18.40;66.60;;;;;;6333992;22;20076;-69
2022/05/10 11:48:04;;;;;;;3.80;1.23;;;18.50;66.00;;;;;;6333820;22;20010;-70
2022/05/10 11:54:14;;;;;;;21.33;1.98;;;18.50;66.20;;;;;;6334057;22;20009;-70
2022/05/10 11:56:41;;;;;;;4.93;1.13;;;18.50;66.40;;;;;;6332262;22;19999;-71
2022/05/10 11:59:23;;;;;;;3.53;1.27;;;18.50;66.60;;;;;;6333930;22;20005;-69
2022/05/10 12:01:52;;;;;;;8.48;1.33;;;18.50;66.70;;;;;;6337517;22;20010;-71
2022/05/10 12:04:46;;;;;;;6.30;1.30;;;18.50;66.60;;;;;;6337469;22;20108;-71
2022/05/10 12:07:23;;;;;;;8.55;1.73;;;18.50;65.60;;;;;;6335716;22;20042;-70
2022/05/10 12:10:07;;;;;;;9.20;1.13;;;18.50;66.00;;;;;;6338134;22;20053;-70
2022/05/10 12:12:34;;;;;;;5.63;1.40;;;18.60;66.50;;;;;;6337648;22;20026;-71
2022/05/10 12:24:11;;;;;;;6.35;1.48;;;18.60;67.00;;;;;;6335644;22;20459;-71
2022/05/10 12:26:43;;;;;;;4.05;1.17;;;18.60;67.90;;;;;;6337245;22;20038;-70
2022/05/10 12:29:55;;;;;;;14.93;1.60;;;18.50;67.70;;;;;;6310613;22;20291;-70
2022/05/10 12:32:38;;;;;;;8.23;1.40;;;18.50;67.80;;;;;;6364543;22;20014;-70
2022/05/10 12:35:32;;;;;;;8.82;1.50;;;18.50;67.20;;;;;;6365372;22;20336;-71
2022/05/10 12:38:00;;;;;;;4.97;1.27;;;18.60;67.20;;;;;;6365765;22;20002;-70
2022/05/10 12:40:34;;;;;;;19.10;2.10;;;18.60;67.10;;;;;;6337527;22;20022;-70
2022/05/10 12:43:38;;;;;;;3.33;1.00;;;18.70;67.30;;;;;;6364584;22;20011;-71
2022/05/10 12:46:12;;;;;;;4.35;1.45;;;18.70;67.70;;;;;;6314658;22;20018;-71
2022/05/10 12:49:01;;;;;;;6.63;1.13;;;18.60;67.80;;;;;;6337572;22;20119;-71
2022/05/10 12:51:41;;;;;;;13.63;1.88;;;18.70;67.90;;;;;;6364418;22;20002;-72
2022/05/10 12:54:15;;;;;;;7.97;1.52;;;18.60;67.40;;;;;;6338167;22;20006;-71
2022/05/10 12:56:43;;;;;;;6.65;1.40;;;18.60;67.90;;;;;;6337520;22;20437;-71
2022/05/10 12:59:42;;;;;;;7.13;1.33;;;18.60;67.80;;;;;;6337057;22;20014;-72
2022/05/10 13:02:10;;;;;;;7.15;1.27;;;18.50;67.70;;;;;;6340987;22;20003;-72
2022/05/10 13:04:45;;;;;;;3.95;1.15;;;18.60;68.20;;;;;;6341331;22;20328;-72
2022/05/10 13:07:28;;;;;;;5.72;1.30;;;18.60;69.20;;;;;;6341940;22;20036;-72
2022/05/10 13:10:07;;;;;;;14.77;1.45;;;18.60;68.10;;;;;;6341445;22;20006;-71
2022/05/10 13:13:15;;;;;;;14.23;2.17;;;18.60;68.30;;;;;;6316583;22;19999;-72
2022/05/10 13:15:44;;;;;;;11.77;1.63;;;18.60;73.20;;;;;;6346204;22;20006;-72
2022/05/10 13:18:16;;;;;;;6.97;1.43;;;18.50;77.20;;;;;;6290284;22;20009;-72
2022/05/10 13:21:01;;;;;;;11.43;1.80;;;18.40;79.20;;;;;;6340706;22;20005;-72
2022/05/10 13:23:30;;;;;;;5.50;1.25;;;18.30;81.00;;;;;;6315221;22;20009;-72
2022/05/10 13:26:07;;;;;;;5.63;1.67;;;18.20;81.60;;;;;;6341146;22;20085;-72
2022/05/10 13:28:35;;;;;;;5.10;1.33;;;18.00;80.90;;;;;;6368937;22;20029;-72
2022/05/10 13:31:04;;;;;;;5.80;1.40;;;17.90;82.60;;;;;;6340011;22;20182;-71
2022/05/10 13:33:36;;;;;;;6.90;1.23;;;17.80;83.80;;;;;;6289284;22;20009;-72
2022/05/10 13:36:08;;;;;;;10.77;1.67;;;17.70;83.60;;;;;;6289912;22;20006;-72
2022/05/10 13:38:42;;;;;;;5.97;1.45;;;17.70;83.50;;;;;;6367687;22;19998;-72
2022/05/10 13:41:14;;;;;;;9.00;1.45;;;17.60;84.10;;;;;;6316243;22;20006;-72